DIRECCIÓN GENERAL DE AERONÁUTICA CIVIL
DIRECCIÓN METEOROLÓGICA DE CHILE
INFORMACIÓN METAR Y TAF

FIR PUERTO MONTT

Estación: SCTC
METAR SCTC 290000Z VRB03KT 6000 -DZ BKN015 OVC020 13/10 Q1012=

TAF SCTC 282231Z 2900/3000 34007KT 9999 BKN025 TN08/2912Z TX14/2918Z BECMG 2903/2905 7000 -RA OVC012 BECMG 2915/2917 9999 SCT030 BECMG 2920/2922 BKN020 BKN035=

Estación: SCVD
METAR SCVD 290000Z AUTO 04004KT 010V070 9999 SCT027 10/10 Q1011=

TAF SCVD 281710Z 2818/2906 32007KT 9999 BKN015 TX14/2818Z TN10/2823Z BECMG 2823/2901 34012KT 5000 SHRA OVC010=

Estación: SCJO
METAR SCJO 282300Z 02005KT 9999 SCT020 BKN040 10/10 Q1012=

TAF SCJO 281710Z 2818/2906 33006KT 9999 BKN020 TX12/2818Z TN08/2902Z BECMG 2820/2822 01010KT BECMG 2902/2904 7000 RA=

Estación: SCTE
METAR SCTE 290000Z 36005KT 9999 SCT070 09/07 Q1011 NOSIG=

TAF SCTE 282234Z 2900/3000 36005KT 9999 BKN040 TN07/2900Z TX12/2918Z BECMG 2905/2907 30010KT 7000 -RA TEMPO 2910/2914 9999 SCT030 TEMPO 2915/2919 27010KT 7000 -SHRA BECMG 2920/2922 35010KT 9999 SCT035=

Estación: SCON
METAR SCON 290000Z AUTO VRB03KT CAVOK 08/07 Q1009=

TAF SCON 281710Z 2818/2906 33006KT 9999 BKN017 TX12/2818Z TN07/2906Z PROB30 TEMPO 2901/2906 7000 RA=

Estación: SCTN
METAR SCTN NIL=

TAF SCTN NIL=

Estación: SCFT
METAR SCFT 290000Z AUTO VRB02KT 5000 BR 02/01 Q1011=

TAF SCFT NIL=

Estación: SCAP
METAR SCAP 290000Z AUTO VRB01KT 9999 -SHRA FEW021 04/03 Q1016=

TAF SCAP NIL=

Estación: SCMK
METAR SCMK 282200Z 36005KT 9999 BKN020 09/06 Q1008=

TAF SCMK 281710Z 2818/2906 34008KT 9999 BKN020 TX10/2818Z TN09/2906Z TEMPO 2818/2822 7000 -RA BECMG 2822/2900 FEW010=

Estación: SCAS
METAR SCAS 182000Z 00000KT 9999 -RA SCT013 BKN026 OVC043 11/11 Q1014=

TAF SCAS NIL=

Estación: SCCY
METAR SCCY 290000Z 02004KT 9999 BKN036 03/01 Q1007=

TAF SCCY 281710Z 2818/2906 VRB02KT 9999 BKN025 TX04/2818Z TNM00/2906Z =

Estación: SCBA
METAR SCBA 290000Z AUTO 30009KT 9999 03/01 Q1006=

TAF SCBA 282238Z 2900/3000 32007KT 9999 BKN030 TNM03/2911Z TX03/2918Z TEMPO 2905/2911 VRB02KT 5000 -SN OVC015 BECMG 2912/2914 9999 SCT030 BECMG 2918/2920 30010KT PROB30 2920/293000 7000 -SHRA BKN040=

Estación: SCCC
METAR SCCC 282100Z 20004KT 9999 SCT040 05/01 Q1004=

TAF SCCC CECF 7687=

Estación: SCHR
METAR SCHR 282100Z 30005KT 9999 SCT035 M00/M03 Q1002=

TAF AMD SCHR 281520Z 2815/2900 VRB03KT 0500 FZFG OVC001 TNM02/2815Z TX02/2819Z TEMPO 2815/2818 6000 -SHRASN BKN007 BECMG 2816/2818 31007KT SCT030=


Volver